sensor_id;sensor_type;location;lat;lon;timestamp;P1;durP1;ratioP1;P2;durP2;ratioP2
18505;SDS011;9382;53.242;10.438;2022-08-03T00:01:35;4.03;;;3.73;;
18505;SDS011;9382;53.242;10.438;2022-08-03T00:04:03;7.83;;;4.00;;
18505;SDS011;9382;53.242;10.438;2022-08-03T00:06:30;6.90;;;4.17;;
18505;SDS011;9382;53.242;10.438;2022-08-03T00:08:58;4.50;;;4.10;;
18505;SDS011;9382;53.242;10.438;2022-08-03T00:11:25;6.17;;;4.17;;
18505;SDS011;9382;53.242;10.438;2022-08-03T00:13:52;4.43;;;4.03;;
18505;SDS011;9382;53.242;10.438;2022-08-03T00:16:19;6.73;;;4.10;;
18505;SDS011;9382;53.242;10.438;2022-08-03T00:18:46;4.43;;;3.90;;
18505;SDS011;9382;53.242;10.438;2022-08-03T00:21:12;4.40;;;4.00;;
18505;SDS011;9382;53.242;10.438;2022-08-03T00:23:39;5.83;;;4.47;;
18505;SDS011;9382;53.242;10.438;2022-08-03T00:26:07;5.80;;;4.10;;
18505;SDS011;9382;53.242;10.438;2022-08-03T00:28:34;6.17;;;3.73;;
18505;SDS011;9382;53.242;10.438;2022-08-03T00:31:01;4.30;;;3.87;;
18505;SDS011;9382;53.242;10.438;2022-08-03T00:33:27;4.30;;;3.90;;
18505;SDS011;9382;53.242;10.438;2022-08-03T00:35:54;4.10;;;3.80;;
18505;SDS011;9382;53.242;10.438;2022-08-03T00:38:21;7.33;;;4.20;;
18505;SDS011;9382;53.242;10.438;2022-08-03T00:40:48;5.73;;;4.20;;
18505;SDS011;9382;53.242;10.438;2022-08-03T00:43:16;5.13;;;4.10;;
18505;SDS011;9382;53.242;10.438;2022-08-03T00:45:42;5.67;;;4.10;;
18505;SDS011;9382;53.242;10.438;2022-08-03T00:48:10;4.53;;;4.13;;
18505;SDS011;9382;53.242;10.438;2022-08-03T00:50:38;6.87;;;5.90;;
18505;SDS011;9382;53.242;10.438;2022-08-03T00:53:07;13.30;;;8.37;;
18505;SDS011;9382;53.242;10.438;2022-08-03T00:55:36;13.27;;;9.53;;
18505;SDS011;9382;53.242;10.438;2022-08-03T00:58:03;18.67;;;11.73;;
18505;SDS011;9382;53.242;10.438;2022-08-03T01:00:33;21.13;;;13.10;;
18505;SDS011;9382;53.242;10.438;2022-08-03T01:03:02;24.27;;;14.20;;
18505;SDS011;9382;53.242;10.438;2022-08-03T01:05:30;19.77;;;12.60;;
18505;SDS011;9382;53.242;10.438;2022-08-03T01:08:04;21.13;;;12.97;;
18505;SDS011;9382;53.242;10.438;2022-08-03T01:10:38;15.63;;;9.70;;
18505;SDS011;9382;53.242;10.438;2022-08-03T01:13:16;13.23;;;8.47;;
18505;SDS011;9382;53.242;10.438;2022-08-03T01:15:53;9.77;;;7.40;;
18505;SDS011;9382;53.242;10.438;2022-08-03T01:18:30;9.43;;;6.17;;
18505;SDS011;9382;53.242;10.438;2022-08-03T01:21:03;8.33;;;5.57;;
18505;SDS011;9382;53.242;10.438;2022-08-03T01:23:53;5.23;;;4.73;;
18505;SDS011;9382;53.242;10.438;2022-08-03T01:26:33;5.53;;;4.60;;
18505;SDS011;9382;53.242;10.438;2022-08-03T01:29:18;4.97;;;4.43;;
18505;SDS011;9382;53.242;10.438;2022-08-03T01:32:16;5.10;;;4.60;;
18505;SDS011;9382;53.242;10.438;2022-08-03T01:34:47;5.83;;;4.63;;
18505;SDS011;9382;53.242;10.438;2022-08-03T01:37:21;7.33;;;4.67;;
18505;SDS011;9382;53.242;10.438;2022-08-03T01:39:53;5.03;;;4.47;;
18505;SDS011;9382;53.242;10.438;2022-08-03T01:42:22;4.80;;;4.40;;
18505;SDS011;9382;53.242;10.438;2022-08-03T01:44:52;4.50;;;4.10;;
18505;SDS011;9382;53.242;10.438;2022-08-03T01:47:22;4.70;;;4.30;;
18505;SDS011;9382;53.242;10.438;2022-08-03T01:49:50;5.00;;;4.50;;
18505;SDS011;9382;53.242;10.438;2022-08-03T01:52:18;11.17;;;4.70;;
18505;SDS011;9382;53.242;10.438;2022-08-03T01:54:47;4.63;;;4.23;;
18505;SDS011;9382;53.242;10.438;2022-08-03T01:57:16;4.70;;;4.27;;
18505;SDS011;9382;53.242;10.438;2022-08-03T01:59:45;4.90;;;4.40;;
18505;SDS011;9382;53.242;10.438;2022-08-03T02:02:16;6.77;;;4.43;;
18505;SDS011;9382;53.242;10.438;2022-08-03T02:04:43;5.00;;;4.50;;
18505;SDS011;9382;53.242;10.438;2022-08-03T02:07:11;5.03;;;4.53;;
18505;SDS011;9382;53.242;10.438;2022-08-03T02:09:40;4.73;;;4.33;;
18505;SDS011;9382;53.242;10.438;2022-08-03T02:12:10;5.30;;;4.70;;
18505;SDS011;9382;53.242;10.438;2022-08-03T02:14:38;5.10;;;4.70;;
18505;SDS011;9382;53.242;10.438;2022-08-03T02:17:06;5.33;;;4.67;;
18505;SDS011;9382;53.242;10.438;2022-08-03T02:19:35;4.90;;;4.40;;
18505;SDS011;9382;53.242;10.438;2022-08-03T02:22:04;4.97;;;4.57;;
18505;SDS011;9382;53.242;10.438;2022-08-03T02:24:33;5.03;;;4.50;;
18505;SDS011;9382;53.242;10.438;2022-08-03T02:27:00;4.87;;;4.30;;
18505;SDS011;9382;53.242;10.438;2022-08-03T02:29:33;5.03;;;4.63;;
18505;SDS011;9382;53.242;10.438;2022-08-03T02:32:02;5.10;;;4.60;;
18505;SDS011;9382;53.242;10.438;2022-08-03T02:34:30;5.93;;;4.97;;
18505;SDS011;9382;53.242;10.438;2022-08-03T02:37:01;7.50;;;4.73;;
18505;SDS011;9382;53.242;10.438;2022-08-03T02:39:30;5.33;;;4.63;;
18505;SDS011;9382;53.242;10.438;2022-08-03T02:42:00;4.77;;;4.37;;
18505;SDS011;9382;53.242;10.438;2022-08-03T02:44:28;5.87;;;4.80;;
18505;SDS011;9382;53.242;10.438;2022-08-03T02:46:57;6.43;;;4.70;;
18505;SDS011;9382;53.242;10.438;2022-08-03T02:49:28;5.83;;;5.17;;
18505;SDS011;9382;53.242;10.438;2022-08-03T02:51:56;5.53;;;5.00;;
18505;SDS011;9382;53.242;10.438;2022-08-03T02:54:26;5.83;;;5.10;;
18505;SDS011;9382;53.242;10.438;2022-08-03T02:56:54;5.43;;;4.63;;
18505;SDS011;9382;53.242;10.438;2022-08-03T02:59:22;5.83;;;4.77;;
18505;SDS011;9382;53.242;10.438;2022-08-03T03:01:51;5.57;;;5.00;;
18505;SDS011;9382;53.242;10.438;2022-08-03T03:04:20;6.10;;;4.93;;
18505;SDS011;9382;53.242;10.438;2022-08-03T03:06:47;6.03;;;4.77;;
18505;SDS011;9382;53.242;10.438;2022-08-03T03:09:15;5.03;;;4.63;;
18505;SDS011;9382;53.242;10.438;2022-08-03T03:11:43;7.53;;;5.40;;
18505;SDS011;9382;53.242;10.438;2022-08-03T03:14:11;5.77;;;5.20;;
18505;SDS011;9382;53.242;10.438;2022-08-03T03:16:40;5.63;;;5.00;;
18505;SDS011;9382;53.242;10.438;2022-08-03T03:19:08;5.70;;;5.10;;
18505;SDS011;9382;53.242;10.438;2022-08-03T03:21:38;5.37;;;4.80;;
18505;SDS011;9382;53.242;10.438;2022-08-03T03:24:05;5.47;;;4.97;;
18505;SDS011;9382;53.242;10.438;2022-08-03T03:26:34;5.70;;;5.20;;
18505;SDS011;9382;53.242;10.438;2022-08-03T03:29:02;7.73;;;5.33;;
18505;SDS011;9382;53.242;10.438;2022-08-03T03:31:30;6.00;;;5.40;;
18505;SDS011;9382;53.242;10.438;2022-08-03T03:33:57;5.70;;;4.77;;
18505;SDS011;9382;53.242;10.438;2022-08-03T03:36:24;5.77;;;5.27;;
18505;SDS011;9382;53.242;10.438;2022-08-03T03:38:51;5.60;;;5.10;;
18505;SDS011;9382;53.242;10.438;2022-08-03T03:41:17;6.50;;;5.50;;
18505;SDS011;9382;53.242;10.438;2022-08-03T03:43:44;6.10;;;5.60;;
18505;SDS011;9382;53.242;10.438;2022-08-03T03:46:13;5.93;;;5.30;;
18505;SDS011;9382;53.242;10.438;2022-08-03T03:48:40;6.00;;;5.43;;
18505;SDS011;9382;53.242;10.438;2022-08-03T03:51:06;5.83;;;5.30;;
18505;SDS011;9382;53.242;10.438;2022-08-03T03:53:34;5.50;;;5.10;;
18505;SDS011;9382;53.242;10.438;2022-08-03T03:56:01;6.17;;;5.60;;
18505;SDS011;9382;53.242;10.438;2022-08-03T03:58:29;6.27;;;5.67;;
18505;SDS011;9382;53.242;10.438;2022-08-03T04:00:56;6.53;;;5.40;;
18505;SDS011;9382;53.242;10.438;2022-08-03T04:03:25;5.90;;;5.37;;
18505;SDS011;9382;53.242;10.438;2022-08-03T04:05:52;6.37;;;5.20;;
18505;SDS011;9382;53.242;10.438;2022-08-03T04:08:36;6.63;;;5.60;;
18505;SDS011;9382;53.242;10.438;2022-08-03T04:11:21;5.90;;;5.30;;
18505;SDS011;9382;53.242;10.438;2022-08-03T04:13:54;5.10;;;4.60;;
18505;SDS011;9382;53.242;10.438;2022-08-03T04:16:24;7.13;;;5.40;;
18505;SDS011;9382;53.242;10.438;2022-08-03T04:18:56;6.20;;;5.60;;
18505;SDS011;9382;53.242;10.438;2022-08-03T04:21:27;6.73;;;5.00;;
18505;SDS011;9382;53.242;10.438;2022-08-03T04:23:57;7.03;;;5.73;;
18505;SDS011;9382;53.242;10.438;2022-08-03T04:26:27;6.37;;;5.53;;
18505;SDS011;9382;53.242;10.438;2022-08-03T04:28:56;5.80;;;5.30;;
18505;SDS011;9382;53.242;10.438;2022-08-03T04:31:25;6.20;;;5.60;;
18505;SDS011;9382;53.242;10.438;2022-08-03T04:33:53;6.50;;;5.30;;
18505;SDS011;9382;53.242;10.438;2022-08-03T04:36:22;5.63;;;5.10;;
18505;SDS011;9382;53.242;10.438;2022-08-03T04:38:54;5.63;;;5.07;;
18505;SDS011;9382;53.242;10.438;2022-08-03T04:41:25;6.37;;;5.00;;
18505;SDS011;9382;53.242;10.438;2022-08-03T04:43:53;11.27;;;5.20;;
18505;SDS011;9382;53.242;10.438;2022-08-03T04:46:21;6.70;;;4.77;;
18505;SDS011;9382;53.242;10.438;2022-08-03T04:48:50;5.27;;;4.83;;
18505;SDS011;9382;53.242;10.438;2022-08-03T04:51:18;6.67;;;5.13;;
18505;SDS011;9382;53.242;10.438;2022-08-03T04:53:46;5.73;;;5.23;;
18505;SDS011;9382;53.242;10.438;2022-08-03T04:56:13;5.60;;;5.10;;
18505;SDS011;9382;53.242;10.438;2022-08-03T04:58:39;5.90;;;5.30;;
18505;SDS011;9382;53.242;10.438;2022-08-03T05:01:06;5.30;;;4.90;;
18505;SDS011;9382;53.242;10.438;2022-08-03T05:03:33;5.13;;;4.60;;
18505;SDS011;9382;53.242;10.438;2022-08-03T05:06:01;5.67;;;5.13;;
18505;SDS011;9382;53.242;10.438;2022-08-03T05:08:30;5.40;;;4.90;;
18505;SDS011;9382;53.242;10.438;2022-08-03T05:10:56;5.30;;;4.83;;
18505;SDS011;9382;53.242;10.438;2022-08-03T05:13:23;5.17;;;4.67;;
18505;SDS011;9382;53.242;10.438;2022-08-03T05:15:50;5.60;;;5.00;;
18505;SDS011;9382;53.242;10.438;2022-08-03T05:18:17;5.17;;;4.67;;
18505;SDS011;9382;53.242;10.438;2022-08-03T05:20:43;6.83;;;5.03;;
18505;SDS011;9382;53.242;10.438;2022-08-03T05:23:10;5.10;;;4.70;;
18505;SDS011;9382;53.242;10.438;2022-08-03T05:25:38;5.03;;;4.60;;
18505;SDS011;9382;53.242;10.438;2022-08-03T05:28:05;5.40;;;4.97;;
18505;SDS011;9382;53.242;10.438;2022-08-03T05:30:31;5.20;;;4.70;;
18505;SDS011;9382;53.242;10.438;2022-08-03T05:32:58;5.13;;;4.73;;
18505;SDS011;9382;53.242;10.438;2022-08-03T05:35:25;5.17;;;4.67;;
18505;SDS011;9382;53.242;10.438;2022-08-03T05:37:53;5.40;;;4.90;;
18505;SDS011;9382;53.242;10.438;2022-08-03T05:40:19;5.03;;;4.63;;
18505;SDS011;9382;53.242;10.438;2022-08-03T05:42:47;5.50;;;4.47;;
18505;SDS011;9382;53.242;10.438;2022-08-03T05:45:14;5.50;;;5.00;;
18505;SDS011;9382;53.242;10.438;2022-08-03T05:47:42;5.37;;;4.47;;
18505;SDS011;9382;53.242;10.438;2022-08-03T05:50:09;5.03;;;4.70;;
18505;SDS011;9382;53.242;10.438;2022-08-03T05:52:36;7.60;;;4.57;;
18505;SDS011;9382;53.242;10.438;2022-08-03T05:55:04;6.60;;;4.97;;
18505;SDS011;9382;53.242;10.438;2022-08-03T05:57:32;6.13;;;4.60;;
18505;SDS011;9382;53.242;10.438;2022-08-03T06:00:00;4.80;;;4.33;;
18505;SDS011;9382;53.242;10.438;2022-08-03T06:02:29;4.90;;;4.40;;
18505;SDS011;9382;53.242;10.438;2022-08-03T06:04:56;7.60;;;5.10;;
18505;SDS011;9382;53.242;10.438;2022-08-03T06:07:22;5.00;;;4.60;;
18505;SDS011;9382;53.242;10.438;2022-08-03T06:09:49;6.80;;;4.33;;
18505;SDS011;9382;53.242;10.438;2022-08-03T06:12:16;7.13;;;4.43;;
18505;SDS011;9382;53.242;10.438;2022-08-03T06:14:42;5.07;;;4.50;;
18505;SDS011;9382;53.242;10.438;2022-08-03T06:17:11;4.97;;;4.47;;
18505;SDS011;9382;53.242;10.438;2022-08-03T06:19:37;8.10;;;4.07;;
18505;SDS011;9382;53.242;10.438;2022-08-03T06:22:04;5.03;;;4.53;;
18505;SDS011;9382;53.242;10.438;2022-08-03T06:24:31;4.80;;;4.37;;
18505;SDS011;9382;53.242;10.438;2022-08-03T06:26:58;4.30;;;3.90;;
18505;SDS011;9382;53.242;10.438;2022-08-03T06:29:24;7.10;;;4.23;;
18505;SDS011;9382;53.242;10.438;2022-08-03T06:31:51;4.77;;;4.17;;
18505;SDS011;9382;53.242;10.438;2022-08-03T06:34:19;4.83;;;4.30;;
18505;SDS011;9382;53.242;10.438;2022-08-03T06:36:46;4.73;;;3.73;;
18505;SDS011;9382;53.242;10.438;2022-08-03T06:39:14;4.57;;;4.10;;
18505;SDS011;9382;53.242;10.438;2022-08-03T06:41:41;4.90;;;3.97;;
18505;SDS011;9382;53.242;10.438;2022-08-03T06:44:08;4.87;;;3.70;;
18505;SDS011;9382;53.242;10.438;2022-08-03T06:46:35;4.37;;;3.70;;
18505;SDS011;9382;53.242;10.438;2022-08-03T06:49:02;4.07;;;3.60;;
18505;SDS011;9382;53.242;10.438;2022-08-03T06:51:30;4.20;;;3.80;;
18505;SDS011;9382;53.242;10.438;2022-08-03T06:53:57;5.03;;;3.60;;
18505;SDS011;9382;53.242;10.438;2022-08-03T06:56:23;4.63;;;4.23;;
18505;SDS011;9382;53.242;10.438;2022-08-03T06:58:50;4.23;;;3.83;;
18505;SDS011;9382;53.242;10.438;2022-08-03T07:01:17;5.57;;;3.83;;
18505;SDS011;9382;53.242;10.438;2022-08-03T07:03:44;3.80;;;3.50;;
18505;SDS011;9382;53.242;10.438;2022-08-03T07:06:11;4.13;;;3.73;;
18505;SDS011;9382;53.242;10.438;2022-08-03T07:08:39;5.53;;;4.10;;
18505;SDS011;9382;53.242;10.438;2022-08-03T07:11:05;4.97;;;3.40;;
18505;SDS011;9382;53.242;10.438;2022-08-03T07:13:32;4.83;;;3.50;;
18505;SDS011;9382;53.242;10.438;2022-08-03T07:15:59;3.50;;;3.20;;
18505;SDS011;9382;53.242;10.438;2022-08-03T07:18:26;3.57;;;3.23;;
18505;SDS011;9382;53.242;10.438;2022-08-03T07:20:55;3.80;;;3.20;;
18505;SDS011;9382;53.242;10.438;2022-08-03T07:23:22;5.53;;;3.47;;
18505;SDS011;9382;53.242;10.438;2022-08-03T07:25:50;4.53;;;3.23;;
18505;SDS011;9382;53.242;10.438;2022-08-03T07:28:17;4.90;;;3.20;;
18505;SDS011;9382;53.242;10.438;2022-08-03T07:30:44;4.17;;;3.00;;
18505;SDS011;9382;53.242;10.438;2022-08-03T07:33:10;5.73;;;3.30;;
18505;SDS011;9382;53.242;10.438;2022-08-03T07:35:37;3.53;;;3.23;;
18505;SDS011;9382;53.242;10.438;2022-08-03T07:38:04;3.40;;;2.83;;
18505;SDS011;9382;53.242;10.438;2022-08-03T07:40:33;3.87;;;3.03;;
18505;SDS011;9382;53.242;10.438;2022-08-03T07:43:01;3.10;;;2.70;;
18505;SDS011;9382;53.242;10.438;2022-08-03T07:45:29;3.53;;;2.70;;
18505;SDS011;9382;53.242;10.438;2022-08-03T07:47:56;3.13;;;2.20;;
18505;SDS011;9382;53.242;10.438;2022-08-03T07:50:23;2.40;;;2.20;;
18505;SDS011;9382;53.242;10.438;2022-08-03T07:52:51;2.90;;;2.30;;
18505;SDS011;9382;53.242;10.438;2022-08-03T07:55:20;2.50;;;2.30;;
18505;SDS011;9382;53.242;10.438;2022-08-03T07:57:57;3.73;;;2.50;;
18505;SDS011;9382;53.242;10.438;2022-08-03T08:00:26;2.53;;;2.33;;
18505;SDS011;9382;53.242;10.438;2022-08-03T08:02:53;6.30;;;2.50;;
18505;SDS011;9382;53.242;10.438;2022-08-03T08:05:20;2.40;;;2.20;;
18505;SDS011;9382;53.242;10.438;2022-08-03T08:07:47;5.43;;;2.70;;
18505;SDS011;9382;53.242;10.438;2022-08-03T08:10:14;2.83;;;2.40;;
18505;SDS011;9382;53.242;10.438;2022-08-03T08:12:40;2.33;;;2.20;;
18505;SDS011;9382;53.242;10.438;2022-08-03T08:15:09;3.23;;;2.50;;
18505;SDS011;9382;53.242;10.438;2022-08-03T08:17:42;3.15;;;2.28;;
18505;SDS011;9382;53.242;10.438;2022-08-03T08:20:10;3.97;;;2.40;;
18505;SDS011;9382;53.242;10.438;2022-08-03T08:22:37;2.90;;;2.35;;
18505;SDS011;9382;53.242;10.438;2022-08-03T08:25:05;3.47;;;2.30;;
18505;SDS011;9382;53.242;10.438;2022-08-03T08:27:32;3.03;;;2.10;;
18505;SDS011;9382;53.242;10.438;2022-08-03T08:29:59;2.42;;;2.10;;
18505;SDS011;9382;53.242;10.438;2022-08-03T08:32:30;4.70;;;2.30;;
18505;SDS011;9382;53.242;10.438;2022-08-03T08:34:57;3.55;;;2.28;;
18505;SDS011;9382;53.242;10.438;2022-08-03T08:37:23;5.47;;;2.10;;
18505;SDS011;9382;53.242;10.438;2022-08-03T08:39:50;2.30;;;2.00;;
18505;SDS011;9382;53.242;10.438;2022-08-03T08:42:17;3.40;;;2.40;;
18505;SDS011;9382;53.242;10.438;2022-08-03T08:44:44;2.00;;;1.90;;
18505;SDS011;9382;53.242;10.438;2022-08-03T08:47:10;3.90;;;2.30;;
18505;SDS011;9382;53.242;10.438;2022-08-03T08:49:40;2.22;;;1.70;;
18505;SDS011;9382;53.242;10.438;2022-08-03T08:52:07;5.15;;;2.10;;
18505;SDS011;9382;53.242;10.438;2022-08-03T08:54:35;6.03;;;2.00;;
18505;SDS011;9382;53.242;10.438;2022-08-03T08:57:05;6.60;;;2.28;;
18505;SDS011;9382;53.242;10.438;2022-08-03T08:59:32;2.65;;;1.80;;
18505;SDS011;9382;53.242;10.438;2022-08-03T09:01:59;4.90;;;1.90;;
18505;SDS011;9382;53.242;10.438;2022-08-03T09:04:26;3.03;;;1.98;;
18505;SDS011;9382;53.242;10.438;2022-08-03T09:06:56;3.42;;;2.10;;
18505;SDS011;9382;53.242;10.438;2022-08-03T09:09:22;3.05;;;2.10;;
18505;SDS011;9382;53.242;10.438;2022-08-03T09:11:49;4.07;;;2.28;;
18505;SDS011;9382;53.242;10.438;2022-08-03T09:14:16;3.83;;;1.95;;
18505;SDS011;9382;53.242;10.438;2022-08-03T09:16:56;7.70;;;2.20;;
18505;SDS011;9382;53.242;10.438;2022-08-03T09:19:27;3.95;;;1.98;;
18505;SDS011;9382;53.242;10.438;2022-08-03T09:22:09;4.18;;;2.15;;
18505;SDS011;9382;53.242;10.438;2022-08-03T09:24:38;7.07;;;2.22;;
18505;SDS011;9382;53.242;10.438;2022-08-03T09:27:19;4.40;;;2.22;;
18505;SDS011;9382;53.242;10.438;2022-08-03T09:29:47;2.95;;;1.92;;
18505;SDS011;9382;53.242;10.438;2022-08-03T09:32:14;4.43;;;1.95;;
18505;SDS011;9382;53.242;10.438;2022-08-03T09:34:45;3.97;;;2.15;;
18505;SDS011;9382;53.242;10.438;2022-08-03T09:37:14;3.42;;;2.40;;
18505;SDS011;9382;53.242;10.438;2022-08-03T09:39:42;5.15;;;1.85;;
18505;SDS011;9382;53.242;10.438;2022-08-03T09:42:10;3.42;;;1.90;;
18505;SDS011;9382;53.242;10.438;2022-08-03T09:44:39;3.30;;;2.17;;
18505;SDS011;9382;53.242;10.438;2022-08-03T09:47:07;3.08;;;1.90;;
18505;SDS011;9382;53.242;10.438;2022-08-03T09:49:35;2.58;;;2.33;;
18505;SDS011;9382;53.242;10.438;2022-08-03T09:52:10;3.75;;;2.00;;
18505;SDS011;9382;53.242;10.438;2022-08-03T09:54:40;4.68;;;2.05;;
18505;SDS011;9382;53.242;10.438;2022-08-03T09:57:07;3.97;;;1.83;;
18505;SDS011;9382;53.242;10.438;2022-08-03T09:59:44;2.03;;;1.85;;
18505;SDS011;9382;53.242;10.438;2022-08-03T10:02:19;5.47;;;1.98;;
18505;SDS011;9382;53.242;10.438;2022-08-03T10:04:48;4.10;;;1.90;;
18505;SDS011;9382;53.242;10.438;2022-08-03T10:07:16;2.72;;;1.95;;
18505;SDS011;9382;53.242;10.438;2022-08-03T10:09:53;2.72;;;1.90;;
18505;SDS011;9382;53.242;10.438;2022-08-03T10:12:21;4.55;;;1.88;;
18505;SDS011;9382;53.242;10.438;2022-08-03T10:14:49;2.00;;;1.90;;
18505;SDS011;9382;53.242;10.438;2022-08-03T10:17:16;6.07;;;2.03;;
18505;SDS011;9382;53.242;10.438;2022-08-03T10:19:43;2.45;;;1.77;;
18505;SDS011;9382;53.242;10.438;2022-08-03T10:22:11;2.80;;;2.00;;
18505;SDS011;9382;53.242;10.438;2022-08-03T10:24:39;2.05;;;1.60;;
18505;SDS011;9382;53.242;10.438;2022-08-03T10:27:14;4.28;;;1.77;;
18505;SDS011;9382;53.242;10.438;2022-08-03T10:29:44;2.53;;;1.85;;
18505;SDS011;9382;53.242;10.438;2022-08-03T10:32:17;1.90;;;1.80;;
18505;SDS011;9382;53.242;10.438;2022-08-03T10:34:49;3.40;;;2.00;;
18505;SDS011;9382;53.242;10.438;2022-08-03T10:37:16;5.32;;;1.80;;
18505;SDS011;9382;53.242;10.438;2022-08-03T10:39:44;3.35;;;1.80;;
18505;SDS011;9382;53.242;10.438;2022-08-03T10:42:20;5.05;;;2.00;;
18505;SDS011;9382;53.242;10.438;2022-08-03T10:44:51;5.22;;;1.90;;
18505;SDS011;9382;53.242;10.438;2022-08-03T10:47:23;3.28;;;2.10;;
18505;SDS011;9382;53.242;10.438;2022-08-03T10:49:50;3.55;;;1.65;;
18505;SDS011;9382;53.242;10.438;2022-08-03T10:52:17;4.85;;;2.00;;
18505;SDS011;9382;53.242;10.438;2022-08-03T10:54:44;4.63;;;1.92;;
18505;SDS011;9382;53.242;10.438;2022-08-03T10:57:42;4.63;;;2.13;;
18505;SDS011;9382;53.242;10.438;2022-08-03T11:00:11;5.10;;;2.05;;
18505;SDS011;9382;53.242;10.438;2022-08-03T11:05:33;3.28;;;1.83;;
18505;SDS011;9382;53.242;10.438;2022-08-03T11:10:57;4.95;;;1.70;;
18505;SDS011;9382;53.242;10.438;2022-08-03T11:13:28;6.15;;;1.90;;
18505;SDS011;9382;53.242;10.438;2022-08-03T11:15:59;2.97;;;1.98;;
18505;SDS011;9382;53.242;10.438;2022-08-03T11:18:27;1.90;;;1.80;;
18505;SDS011;9382;53.242;10.438;2022-08-03T11:20:55;3.10;;;1.88;;
18505;SDS011;9382;53.242;10.438;2022-08-03T11:23:39;4.80;;;1.83;;
18505;SDS011;9382;53.242;10.438;2022-08-03T11:26:08;2.20;;;1.70;;
18505;SDS011;9382;53.242;10.438;2022-08-03T11:28:41;3.58;;;1.88;;
18505;SDS011;9382;53.242;10.438;2022-08-03T11:34:13;6.07;;;1.70;;
18505;SDS011;9382;53.242;10.438;2022-08-03T11:39:47;2.72;;;1.98;;
18505;SDS011;9382;53.242;10.438;2022-08-03T11:45:13;3.22;;;1.98;;
18505;SDS011;9382;53.242;10.438;2022-08-03T11:47:40;2.97;;;1.83;;
18505;SDS011;9382;53.242;10.438;2022-08-03T11:50:08;4.78;;;1.77;;
18505;SDS011;9382;53.242;10.438;2022-08-03T11:52:39;5.45;;;1.95;;
18505;SDS011;9382;53.242;10.438;2022-08-03T11:55:13;2.60;;;1.75;;
18505;SDS011;9382;53.242;10.438;2022-08-03T11:57:43;2.65;;;1.77;;
18505;SDS011;9382;53.242;10.438;2022-08-03T12:03:04;5.65;;;1.83;;
18505;SDS011;9382;53.242;10.438;2022-08-03T12:05:32;9.00;;;1.92;;
18505;SDS011;9382;53.242;10.438;2022-08-03T12:08:04;4.50;;;2.10;;
18505;SDS011;9382;53.242;10.438;2022-08-03T12:10:31;3.75;;;1.67;;
18505;SDS011;9382;53.242;10.438;2022-08-03T12:12:59;4.93;;;1.73;;
18505;SDS011;9382;53.242;10.438;2022-08-03T12:15:27;4.55;;;2.10;;
18505;SDS011;9382;53.242;10.438;2022-08-03T12:17:59;5.68;;;1.90;;
18505;SDS011;9382;53.242;10.438;2022-08-03T12:20:27;4.00;;;1.88;;
18505;SDS011;9382;53.242;10.438;2022-08-03T12:23:00;3.25;;;1.60;;
18505;SDS011;9382;53.242;10.438;2022-08-03T12:25:28;4.78;;;2.00;;
18505;SDS011;9382;53.242;10.438;2022-08-03T12:28:04;3.03;;;1.67;;
18505;SDS011;9382;53.242;10.438;2022-08-03T12:30:32;2.55;;;1.70;;
18505;SDS011;9382;53.242;10.438;2022-08-03T12:33:11;7.72;;;2.13;;
18505;SDS011;9382;53.242;10.438;2022-08-03T12:35:48;4.82;;;2.00;;
18505;SDS011;9382;53.242;10.438;2022-08-03T12:38:27;3.63;;;1.90;;
18505;SDS011;9382;53.242;10.438;2022-08-03T12:40:58;3.00;;;1.73;;
18505;SDS011;9382;53.242;10.438;2022-08-03T12:43:26;3.85;;;1.75;;
18505;SDS011;9382;53.242;10.438;2022-08-03T12:46:06;2.78;;;1.60;;
18505;SDS011;9382;53.242;10.438;2022-08-03T12:48:35;4.72;;;1.90;;
18505;SDS011;9382;53.242;10.438;2022-08-03T12:51:08;3.95;;;1.70;;
18505;SDS011;9382;53.242;10.438;2022-08-03T12:53:35;3.50;;;1.90;;
18505;SDS011;9382;53.242;10.438;2022-08-03T12:56:02;6.05;;;2.13;;
18505;SDS011;9382;53.242;10.438;2022-08-03T12:58:30;4.65;;;2.08;;
18505;SDS011;9382;53.242;10.438;2022-08-03T13:00:58;3.97;;;1.98;;
18505;SDS011;9382;53.242;10.438;2022-08-03T13:03:25;2.22;;;1.77;;
18505;SDS011;9382;53.242;10.438;2022-08-03T13:05:53;3.40;;;1.90;;
18505;SDS011;9382;53.242;10.438;2022-08-03T13:08:21;3.38;;;2.28;;
18505;SDS011;9382;53.242;10.438;2022-08-03T13:10:50;3.42;;;1.73;;
18505;SDS011;9382;53.242;10.438;2022-08-03T13:13:17;2.35;;;2.08;;
18505;SDS011;9382;53.242;10.438;2022-08-03T13:15:45;3.15;;;1.90;;
18505;SDS011;9382;53.242;10.438;2022-08-03T13:18:12;4.50;;;1.65;;
18505;SDS011;9382;53.242;10.438;2022-08-03T13:20:38;3.50;;;1.90;;
18505;SDS011;9382;53.242;10.438;2022-08-03T13:23:06;1.77;;;1.60;;
18505;SDS011;9382;53.242;10.438;2022-08-03T13:25:33;6.05;;;2.47;;
18505;SDS011;9382;53.242;10.438;2022-08-03T13:28:00;4.05;;;1.90;;
18505;SDS011;9382;53.242;10.438;2022-08-03T13:30:28;3.55;;;1.70;;
18505;SDS011;9382;53.242;10.438;2022-08-03T13:32:55;4.75;;;1.90;;
18505;SDS011;9382;53.242;10.438;2022-08-03T13:35:22;3.20;;;1.80;;
18505;SDS011;9382;53.242;10.438;2022-08-03T13:37:49;3.05;;;1.80;;
18505;SDS011;9382;53.242;10.438;2022-08-03T13:40:17;4.90;;;1.90;;
18505;SDS011;9382;53.242;10.438;2022-08-03T13:42:44;3.35;;;1.67;;
18505;SDS011;9382;53.242;10.438;2022-08-03T13:45:11;3.35;;;1.85;;
18505;SDS011;9382;53.242;10.438;2022-08-03T13:47:37;3.30;;;1.90;;
18505;SDS011;9382;53.242;10.438;2022-08-03T13:50:04;2.63;;;1.95;;
18505;SDS011;9382;53.242;10.438;2022-08-03T13:52:32;5.10;;;1.70;;
18505;SDS011;9382;53.242;10.438;2022-08-03T13:55:00;3.70;;;1.88;;
18505;SDS011;9382;53.242;10.438;2022-08-03T13:57:29;5.35;;;1.55;;
18505;SDS011;9382;53.242;10.438;2022-08-03T13:59:56;4.75;;;1.65;;
18505;SDS011;9382;53.242;10.438;2022-08-03T14:02:22;4.07;;;1.70;;
18505;SDS011;9382;53.242;10.438;2022-08-03T14:04:49;5.00;;;1.77;;
18505;SDS011;9382;53.242;10.438;2022-08-03T14:07:16;3.15;;;1.90;;
18505;SDS011;9382;53.242;10.438;2022-08-03T14:09:43;4.40;;;2.10;;
18505;SDS011;9382;53.242;10.438;2022-08-03T14:12:10;4.35;;;1.92;;
18505;SDS011;9382;53.242;10.438;2022-08-03T14:14:38;2.53;;;1.80;;
18505;SDS011;9382;53.242;10.438;2022-08-03T14:17:05;4.95;;;1.88;;
18505;SDS011;9382;53.242;10.438;2022-08-03T14:19:32;4.18;;;1.92;;
18505;SDS011;9382;53.242;10.438;2022-08-03T14:21:59;4.30;;;1.52;;
18505;SDS011;9382;53.242;10.438;2022-08-03T14:24:28;3.20;;;1.70;;
18505;SDS011;9382;53.242;10.438;2022-08-03T14:26:55;2.35;;;1.63;;
18505;SDS011;9382;53.242;10.438;2022-08-03T14:29:21;3.35;;;1.80;;
18505;SDS011;9382;53.242;10.438;2022-08-03T14:31:50;4.30;;;1.70;;
18505;SDS011;9382;53.242;10.438;2022-08-03T14:34:16;1.85;;;1.35;;
18505;SDS011;9382;53.242;10.438;2022-08-03T14:36:43;5.20;;;1.60;;
18505;SDS011;9382;53.242;10.438;2022-08-03T14:39:11;2.70;;;1.60;;
18505;SDS011;9382;53.242;10.438;2022-08-03T14:41:38;2.65;;;1.42;;
18505;SDS011;9382;53.242;10.438;2022-08-03T14:44:04;3.67;;;1.98;;
18505;SDS011;9382;53.242;10.438;2022-08-03T14:46:32;3.60;;;1.50;;
18505;SDS011;9382;53.242;10.438;2022-08-03T14:49:00;3.30;;;1.63;;
18505;SDS011;9382;53.242;10.438;2022-08-03T14:51:26;5.93;;;1.75;;
18505;SDS011;9382;53.242;10.438;2022-08-03T14:53:53;3.25;;;1.65;;
18505;SDS011;9382;53.242;10.438;2022-08-03T14:56:20;3.50;;;1.90;;
18505;SDS011;9382;53.242;10.438;2022-08-03T14:58:47;4.13;;;1.90;;
18505;SDS011;9382;53.242;10.438;2022-08-03T15:01:14;3.78;;;1.80;;
18505;SDS011;9382;53.242;10.438;2022-08-03T15:03:40;1.92;;;1.75;;
18505;SDS011;9382;53.242;10.438;2022-08-03T15:06:09;4.57;;;1.73;;
18505;SDS011;9382;53.242;10.438;2022-08-03T15:08:35;2.75;;;1.73;;
18505;SDS011;9382;53.242;10.438;2022-08-03T15:11:02;4.45;;;2.00;;
18505;SDS011;9382;53.242;10.438;2022-08-03T15:13:29;3.60;;;1.67;;
18505;SDS011;9382;53.242;10.438;2022-08-03T15:15:56;3.55;;;1.90;;